sensor_id;sensor_type;location;lat;lon;timestamp;P1;durP1;ratioP1;P2;durP2;ratioP2
27957;SDS011;15295;42.658;23.374;2022-12-07T00:01:44;54.47;;;25.80;;
27957;SDS011;15295;42.658;23.374;2022-12-07T00:09:21;56.53;;;25.15;;
27957;SDS011;15295;42.658;23.374;2022-12-07T00:11:50;56.85;;;27.15;;
27957;SDS011;15295;42.658;23.374;2022-12-07T00:14:16;59.42;;;26.65;;
27957;SDS011;15295;42.658;23.374;2022-12-07T00:16:43;55.67;;;26.77;;
27957;SDS011;15295;42.658;23.374;2022-12-07T00:19:10;61.05;;;26.92;;
27957;SDS011;15295;42.658;23.374;2022-12-07T00:24:17;55.65;;;26.63;;
27957;SDS011;15295;42.658;23.374;2022-12-07T00:26:43;63.05;;;28.45;;
27957;SDS011;15295;42.658;23.374;2022-12-07T00:29:19;58.53;;;26.90;;
27957;SDS011;15295;42.658;23.374;2022-12-07T00:35:07;53.72;;;26.23;;
27957;SDS011;15295;42.658;23.374;2022-12-07T00:37:36;56.58;;;26.80;;
27957;SDS011;15295;42.658;23.374;2022-12-07T00:40:02;54.10;;;25.38;;
27957;SDS011;15295;42.658;23.374;2022-12-07T00:42:44;49.83;;;27.25;;
27957;SDS011;15295;42.658;23.374;2022-12-07T00:45:09;59.30;;;26.98;;
27957;SDS011;15295;42.658;23.374;2022-12-07T00:47:35;52.15;;;25.25;;
27957;SDS011;15295;42.658;23.374;2022-12-07T00:50:00;51.95;;;24.70;;
27957;SDS011;15295;42.658;23.374;2022-12-07T00:52:39;52.03;;;25.30;;
27957;SDS011;15295;42.658;23.374;2022-12-07T00:55:05;45.85;;;24.35;;
27957;SDS011;15295;42.658;23.374;2022-12-07T00:57:31;48.80;;;23.95;;
27957;SDS011;15295;42.658;23.374;2022-12-07T00:59:56;49.95;;;25.08;;
27957;SDS011;15295;42.658;23.374;2022-12-07T01:02:24;49.42;;;24.67;;
27957;SDS011;15295;42.658;23.374;2022-12-07T01:04:50;51.47;;;25.33;;
27957;SDS011;15295;42.658;23.374;2022-12-07T01:07:18;49.08;;;24.15;;
27957;SDS011;15295;42.658;23.374;2022-12-07T01:09:43;51.03;;;24.17;;
27957;SDS011;15295;42.658;23.374;2022-12-07T01:12:21;48.90;;;23.73;;
27957;SDS011;15295;42.658;23.374;2022-12-07T01:14:54;44.17;;;22.42;;
27957;SDS011;15295;42.658;23.374;2022-12-07T01:17:20;50.53;;;22.38;;
27957;SDS011;15295;42.658;23.374;2022-12-07T01:19:45;48.65;;;23.77;;
27957;SDS011;15295;42.658;23.374;2022-12-07T01:22:11;45.80;;;22.10;;
27957;SDS011;15295;42.658;23.374;2022-12-07T01:24:36;50.00;;;24.05;;
27957;SDS011;15295;42.658;23.374;2022-12-07T01:27:04;50.47;;;24.65;;
27957;SDS011;15295;42.658;23.374;2022-12-07T01:29:32;46.22;;;24.25;;
27957;SDS011;15295;42.658;23.374;2022-12-07T01:31:58;47.28;;;24.58;;
27957;SDS011;15295;42.658;23.374;2022-12-07T01:34:24;55.10;;;26.75;;
27957;SDS011;15295;42.658;23.374;2022-12-07T01:36:50;46.88;;;26.00;;
27957;SDS011;15295;42.658;23.374;2022-12-07T01:39:26;59.45;;;26.52;;
27957;SDS011;15295;42.658;23.374;2022-12-07T01:41:52;63.17;;;28.92;;
27957;SDS011;15295;42.658;23.374;2022-12-07T01:44:23;55.83;;;28.45;;
27957;SDS011;15295;42.658;23.374;2022-12-07T01:46:58;54.90;;;25.80;;
27957;SDS011;15295;42.658;23.374;2022-12-07T01:54:54;63.40;;;31.20;;
27957;SDS011;15295;42.658;23.374;2022-12-07T01:57:24;63.05;;;29.45;;
27957;SDS011;15295;42.658;23.374;2022-12-07T01:59:51;59.80;;;30.92;;
27957;SDS011;15295;42.658;23.374;2022-12-07T02:02:28;60.38;;;30.33;;
27957;SDS011;15295;42.658;23.374;2022-12-07T02:04:58;60.13;;;29.55;;
27957;SDS011;15295;42.658;23.374;2022-12-07T02:07:26;67.25;;;31.08;;
27957;SDS011;15295;42.658;23.374;2022-12-07T02:09:52;61.70;;;30.35;;
27957;SDS011;15295;42.658;23.374;2022-12-07T02:14:52;64.22;;;31.65;;
27957;SDS011;15295;42.658;23.374;2022-12-07T02:20:45;71.50;;;31.52;;
27957;SDS011;15295;42.658;23.374;2022-12-07T02:29:21;72.97;;;36.08;;
27957;SDS011;15295;42.658;23.374;2022-12-07T02:31:23;71.05;;;34.65;;
27957;SDS011;15295;42.658;23.374;2022-12-07T02:33:54;70.57;;;35.03;;
27957;SDS011;15295;42.658;23.374;2022-12-07T02:36:28;74.70;;;35.83;;
27957;SDS011;15295;42.658;23.374;2022-12-07T02:39:08;76.97;;;35.72;;
27957;SDS011;15295;42.658;23.374;2022-12-07T02:41:43;69.63;;;34.05;;
27957;SDS011;15295;42.658;23.374;2022-12-07T02:44:22;67.00;;;34.60;;
27957;SDS011;15295;42.658;23.374;2022-12-07T02:46:52;69.65;;;34.47;;
27957;SDS011;15295;42.658;23.374;2022-12-07T02:49:30;70.55;;;33.10;;
27957;SDS011;15295;42.658;23.374;2022-12-07T02:51:56;70.90;;;34.75;;
27957;SDS011;15295;42.658;23.374;2022-12-07T02:54:34;81.63;;;36.05;;
27957;SDS011;15295;42.658;23.374;2022-12-07T02:59:53;70.20;;;34.22;;
27957;SDS011;15295;42.658;23.374;2022-12-07T03:05:19;69.50;;;33.17;;
27957;SDS011;15295;42.658;23.374;2022-12-07T03:07:59;69.43;;;33.17;;
27957;SDS011;15295;42.658;23.374;2022-12-07T03:21:32;65.72;;;31.95;;
27957;SDS011;15295;42.658;23.374;2022-12-07T03:24:03;71.82;;;33.05;;
27957;SDS011;15295;42.658;23.374;2022-12-07T03:26:40;73.75;;;33.88;;
27957;SDS011;15295;42.658;23.374;2022-12-07T03:29:19;71.50;;;33.47;;
27957;SDS011;15295;42.658;23.374;2022-12-07T03:31:51;66.03;;;33.22;;
27957;SDS011;15295;42.658;23.374;2022-12-07T03:37:34;67.18;;;32.90;;
27957;SDS011;15295;42.658;23.374;2022-12-07T03:42:49;66.00;;;34.25;;
27957;SDS011;15295;42.658;23.374;2022-12-07T03:45:17;75.72;;;32.97;;
27957;SDS011;15295;42.658;23.374;2022-12-07T03:51:23;71.05;;;34.72;;
27957;SDS011;15295;42.658;23.374;2022-12-07T03:54:05;73.75;;;35.95;;
27957;SDS011;15295;42.658;23.374;2022-12-07T03:56:51;73.63;;;34.85;;
27957;SDS011;15295;42.658;23.374;2022-12-07T03:59:32;71.25;;;35.50;;
27957;SDS011;15295;42.658;23.374;2022-12-07T04:02:03;71.90;;;35.63;;
27957;SDS011;15295;42.658;23.374;2022-12-07T04:04:30;75.97;;;36.10;;
27957;SDS011;15295;42.658;23.374;2022-12-07T04:06:56;69.50;;;34.65;;
27957;SDS011;15295;42.658;23.374;2022-12-07T04:09:21;75.47;;;35.50;;
27957;SDS011;15295;42.658;23.374;2022-12-07T04:11:47;75.10;;;35.35;;
27957;SDS011;15295;42.658;23.374;2022-12-07T04:14:12;65.95;;;33.60;;
27957;SDS011;15295;42.658;23.374;2022-12-07T04:16:46;67.40;;;32.47;;
27957;SDS011;15295;42.658;23.374;2022-12-07T04:19:22;70.10;;;31.13;;
27957;SDS011;15295;42.658;23.374;2022-12-07T04:21:50;72.85;;;32.63;;
27957;SDS011;15295;42.658;23.374;2022-12-07T04:24:23;61.15;;;31.33;;
27957;SDS011;15295;42.658;23.374;2022-12-07T04:26:49;57.45;;;28.95;;
27957;SDS011;15295;42.658;23.374;2022-12-07T04:29:15;65.13;;;30.77;;
27957;SDS011;15295;42.658;23.374;2022-12-07T04:31:42;59.83;;;30.17;;
27957;SDS011;15295;42.658;23.374;2022-12-07T04:34:08;76.45;;;33.05;;
27957;SDS011;15295;42.658;23.374;2022-12-07T04:36:35;68.18;;;33.38;;
27957;SDS011;15295;42.658;23.374;2022-12-07T04:39:01;68.15;;;32.33;;
27957;SDS011;15295;42.658;23.374;2022-12-07T04:41:27;69.78;;;33.72;;
27957;SDS011;15295;42.658;23.374;2022-12-07T04:43:56;66.25;;;32.67;;
27957;SDS011;15295;42.658;23.374;2022-12-07T04:46:31;71.32;;;30.27;;
27957;SDS011;15295;42.658;23.374;2022-12-07T04:48:56;63.17;;;30.95;;
27957;SDS011;15295;42.658;23.374;2022-12-07T04:51:24;65.45;;;31.13;;
27957;SDS011;15295;42.658;23.374;2022-12-07T04:53:51;66.03;;;32.58;;
27957;SDS011;15295;42.658;23.374;2022-12-07T04:56:23;66.65;;;33.30;;
27957;SDS011;15295;42.658;23.374;2022-12-07T04:58:57;66.82;;;31.92;;
27957;SDS011;15295;42.658;23.374;2022-12-07T05:01:24;61.67;;;30.55;;
27957;SDS011;15295;42.658;23.374;2022-12-07T05:03:49;63.22;;;31.15;;
27957;SDS011;15295;42.658;23.374;2022-12-07T05:06:16;68.68;;;31.23;;
27957;SDS011;15295;42.658;23.374;2022-12-07T05:08:42;65.05;;;31.95;;
27957;SDS011;15295;42.658;23.374;2022-12-07T05:11:08;67.38;;;32.20;;
27957;SDS011;15295;42.658;23.374;2022-12-07T05:13:57;63.95;;;31.85;;
27957;SDS011;15295;42.658;23.374;2022-12-07T05:16:23;71.38;;;33.38;;
27957;SDS011;15295;42.658;23.374;2022-12-07T05:18:51;65.60;;;32.03;;
27957;SDS011;15295;42.658;23.374;2022-12-07T05:21:27;73.53;;;32.50;;
27957;SDS011;15295;42.658;23.374;2022-12-07T05:24:09;66.50;;;32.88;;
27957;SDS011;15295;42.658;23.374;2022-12-07T05:26:41;68.90;;;32.58;;
27957;SDS011;15295;42.658;23.374;2022-12-07T05:29:07;71.47;;;33.63;;
27957;SDS011;15295;42.658;23.374;2022-12-07T05:31:35;74.40;;;34.20;;
27957;SDS011;15295;42.658;23.374;2022-12-07T05:34:00;65.97;;;31.38;;
27957;SDS011;15295;42.658;23.374;2022-12-07T05:36:28;70.03;;;33.17;;
27957;SDS011;15295;42.658;23.374;2022-12-07T05:38:56;63.92;;;32.00;;
27957;SDS011;15295;42.658;23.374;2022-12-07T05:41:22;68.22;;;31.40;;
27957;SDS011;15295;42.658;23.374;2022-12-07T05:44:06;71.60;;;32.78;;
27957;SDS011;15295;42.658;23.374;2022-12-07T05:46:32;74.68;;;33.00;;
27957;SDS011;15295;42.658;23.374;2022-12-07T05:49:09;71.53;;;31.38;;
27957;SDS011;15295;42.658;23.374;2022-12-07T05:51:35;65.28;;;31.30;;
27957;SDS011;15295;42.658;23.374;2022-12-07T05:54:00;68.57;;;30.40;;
27957;SDS011;15295;42.658;23.374;2022-12-07T05:56:35;60.15;;;31.13;;
27957;SDS011;15295;42.658;23.374;2022-12-07T05:59:00;71.13;;;30.48;;
27957;SDS011;15295;42.658;23.374;2022-12-07T06:04:23;64.18;;;29.80;;
27957;SDS011;15295;42.658;23.374;2022-12-07T06:06:50;63.90;;;30.83;;
27957;SDS011;15295;42.658;23.374;2022-12-07T06:09:17;67.80;;;29.63;;
27957;SDS011;15295;42.658;23.374;2022-12-07T06:11:46;66.10;;;31.23;;
27957;SDS011;15295;42.658;23.374;2022-12-07T06:14:30;64.45;;;28.48;;
27957;SDS011;15295;42.658;23.374;2022-12-07T06:16:56;69.72;;;29.33;;
27957;SDS011;15295;42.658;23.374;2022-12-07T06:19:22;67.50;;;29.48;;
27957;SDS011;15295;42.658;23.374;2022-12-07T06:21:48;70.45;;;30.40;;
27957;SDS011;15295;42.658;23.374;2022-12-07T06:24:14;74.15;;;32.25;;
27957;SDS011;15295;42.658;23.374;2022-12-07T06:26:43;66.07;;;29.73;;
27957;SDS011;15295;42.658;23.374;2022-12-07T06:29:16;60.85;;;29.50;;
27957;SDS011;15295;42.658;23.374;2022-12-07T06:31:43;66.40;;;30.67;;
27957;SDS011;15295;42.658;23.374;2022-12-07T06:34:10;69.60;;;29.83;;
27957;SDS011;15295;42.658;23.374;2022-12-07T06:36:41;74.65;;;31.13;;
27957;SDS011;15295;42.658;23.374;2022-12-07T06:39:08;68.43;;;30.13;;
27957;SDS011;15295;42.658;23.374;2022-12-07T06:41:35;62.55;;;29.70;;
27957;SDS011;15295;42.658;23.374;2022-12-07T06:44:04;73.03;;;32.50;;
27957;SDS011;15295;42.658;23.374;2022-12-07T06:49:29;66.50;;;31.92;;
27957;SDS011;15295;42.658;23.374;2022-12-07T06:51:54;70.90;;;32.10;;
27957;SDS011;15295;42.658;23.374;2022-12-07T06:54:20;73.30;;;34.00;;
27957;SDS011;15295;42.658;23.374;2022-12-07T06:56:55;71.90;;;32.58;;
27957;SDS011;15295;42.658;23.374;2022-12-07T06:59:35;76.47;;;34.15;;
27957;SDS011;15295;42.658;23.374;2022-12-07T07:02:00;77.60;;;34.92;;
27957;SDS011;15295;42.658;23.374;2022-12-07T07:04:26;84.07;;;37.45;;
27957;SDS011;15295;42.658;23.374;2022-12-07T07:06:51;76.35;;;35.08;;
27957;SDS011;15295;42.658;23.374;2022-12-07T07:09:16;84.13;;;37.25;;
27957;SDS011;15295;42.658;23.374;2022-12-07T07:11:42;78.25;;;34.70;;
27957;SDS011;15295;42.658;23.374;2022-12-07T07:14:07;72.22;;;33.95;;
27957;SDS011;15295;42.658;23.374;2022-12-07T07:16:34;77.20;;;34.20;;
27957;SDS011;15295;42.658;23.374;2022-12-07T07:18:59;70.05;;;32.33;;
27957;SDS011;15295;42.658;23.374;2022-12-07T07:21:25;68.82;;;34.55;;
27957;SDS011;15295;42.658;23.374;2022-12-07T07:23:51;74.35;;;33.35;;
27957;SDS011;15295;42.658;23.374;2022-12-07T07:26:16;71.28;;;31.55;;
27957;SDS011;15295;42.658;23.374;2022-12-07T07:28:45;70.55;;;32.38;;
27957;SDS011;15295;42.658;23.374;2022-12-07T07:31:10;77.07;;;31.35;;
27957;SDS011;15295;42.658;23.374;2022-12-07T07:33:36;72.57;;;30.88;;
27957;SDS011;15295;42.658;23.374;2022-12-07T07:36:01;67.60;;;30.38;;
27957;SDS011;15295;42.658;23.374;2022-12-07T07:38:27;72.32;;;30.27;;
27957;SDS011;15295;42.658;23.374;2022-12-07T07:41:03;65.50;;;30.33;;
27957;SDS011;15295;42.658;23.374;2022-12-07T07:43:32;54.15;;;27.83;;
27957;SDS011;15295;42.658;23.374;2022-12-07T07:45:58;65.65;;;29.48;;
27957;SDS011;15295;42.658;23.374;2022-12-07T07:48:25;73.25;;;29.90;;
27957;SDS011;15295;42.658;23.374;2022-12-07T07:50:50;62.38;;;27.75;;
27957;SDS011;15295;42.658;23.374;2022-12-07T07:53:16;55.28;;;28.08;;
27957;SDS011;15295;42.658;23.374;2022-12-07T07:55:49;53.05;;;25.73;;
27957;SDS011;15295;42.658;23.374;2022-12-07T08:06:04;57.45;;;28.15;;
27957;SDS011;15295;42.658;23.374;2022-12-07T08:08:31;52.90;;;25.38;;
27957;SDS011;15295;42.658;23.374;2022-12-07T08:10:57;55.25;;;26.55;;
27957;SDS011;15295;42.658;23.374;2022-12-07T08:13:25;53.72;;;26.80;;
27957;SDS011;15295;42.658;23.374;2022-12-07T08:15:51;64.57;;;29.40;;
27957;SDS011;15295;42.658;23.374;2022-12-07T08:18:16;49.50;;;27.02;;
27957;SDS011;15295;42.658;23.374;2022-12-07T08:20:42;46.47;;;23.98;;
27957;SDS011;15295;42.658;23.374;2022-12-07T08:23:07;50.92;;;24.67;;
27957;SDS011;15295;42.658;23.374;2022-12-07T08:25:35;46.28;;;23.25;;
27957;SDS011;15295;42.658;23.374;2022-12-07T08:28:01;47.38;;;24.55;;
27957;SDS011;15295;42.658;23.374;2022-12-07T08:30:27;46.72;;;24.88;;
27957;SDS011;15295;42.658;23.374;2022-12-07T08:32:54;67.18;;;28.80;;
27957;SDS011;15295;42.658;23.374;2022-12-07T08:35:20;67.30;;;33.47;;
27957;SDS011;15295;42.658;23.374;2022-12-07T08:37:46;61.35;;;29.27;;
27957;SDS011;15295;42.658;23.374;2022-12-07T08:40:13;50.67;;;28.38;;
27957;SDS011;15295;42.658;23.374;2022-12-07T08:42:43;58.05;;;28.85;;
27957;SDS011;15295;42.658;23.374;2022-12-07T08:45:20;55.20;;;27.33;;
27957;SDS011;15295;42.658;23.374;2022-12-07T08:47:50;63.28;;;29.00;;
27957;SDS011;15295;42.658;23.374;2022-12-07T08:50:20;63.63;;;32.15;;
27957;SDS011;15295;42.658;23.374;2022-12-07T08:52:56;64.38;;;29.92;;
27957;SDS011;15295;42.658;23.374;2022-12-07T08:55:48;63.97;;;30.67;;
27957;SDS011;15295;42.658;23.374;2022-12-07T08:58:15;62.45;;;30.55;;
27957;SDS011;15295;42.658;23.374;2022-12-07T09:00:46;68.38;;;29.40;;
27957;SDS011;15295;42.658;23.374;2022-12-07T09:03:17;66.30;;;31.05;;
27957;SDS011;15295;42.658;23.374;2022-12-07T09:05:43;64.22;;;31.65;;
27957;SDS011;15295;42.658;23.374;2022-12-07T09:08:08;66.85;;;34.05;;
27957;SDS011;15295;42.658;23.374;2022-12-07T09:10:34;61.33;;;31.33;;
27957;SDS011;15295;42.658;23.374;2022-12-07T09:12:59;61.70;;;31.67;;
27957;SDS011;15295;42.658;23.374;2022-12-07T09:15:26;68.55;;;31.25;;
27957;SDS011;15295;42.658;23.374;2022-12-07T09:17:53;62.35;;;30.35;;
27957;SDS011;15295;42.658;23.374;2022-12-07T09:22:56;70.68;;;31.83;;
27957;SDS011;15295;42.658;23.374;2022-12-07T09:25:41;59.83;;;30.83;;
27957;SDS011;15295;42.658;23.374;2022-12-07T09:28:10;63.55;;;30.33;;
27957;SDS011;15295;42.658;23.374;2022-12-07T09:30:48;64.40;;;30.95;;
27957;SDS011;15295;42.658;23.374;2022-12-07T09:33:16;65.38;;;32.83;;
27957;SDS011;15295;42.658;23.374;2022-12-07T09:35:51;67.25;;;31.63;;
27957;SDS011;15295;42.658;23.374;2022-12-07T09:38:17;69.32;;;33.08;;
27957;SDS011;15295;42.658;23.374;2022-12-07T09:40:44;60.95;;;30.60;;
27957;SDS011;15295;42.658;23.374;2022-12-07T09:45:40;64.20;;;32.65;;
27957;SDS011;15295;42.658;23.374;2022-12-07T09:48:11;65.32;;;32.72;;
27957;SDS011;15295;42.658;23.374;2022-12-07T09:50:44;67.72;;;33.28;;
27957;SDS011;15295;42.658;23.374;2022-12-07T09:53:14;73.00;;;33.65;;
27957;SDS011;15295;42.658;23.374;2022-12-07T09:55:54;59.92;;;32.35;;
27957;SDS011;15295;42.658;23.374;2022-12-07T09:58:21;65.05;;;33.30;;
27957;SDS011;15295;42.658;23.374;2022-12-07T10:00:53;73.57;;;33.45;;
27957;SDS011;15295;42.658;23.374;2022-12-07T10:03:22;65.25;;;31.88;;
27957;SDS011;15295;42.658;23.374;2022-12-07T10:05:56;66.88;;;32.10;;
27957;SDS011;15295;42.658;23.374;2022-12-07T10:08:35;70.68;;;33.08;;
27957;SDS011;15295;42.658;23.374;2022-12-07T10:11:07;58.58;;;30.88;;
27957;SDS011;15295;42.658;23.374;2022-12-07T10:13:49;61.58;;;31.35;;
27957;SDS011;15295;42.658;23.374;2022-12-07T10:18:53;66.18;;;30.58;;
27957;SDS011;15295;42.658;23.374;2022-12-07T10:24:05;67.97;;;33.75;;
27957;SDS011;15295;42.658;23.374;2022-12-07T10:26:38;62.35;;;30.70;;
27957;SDS011;15295;42.658;23.374;2022-12-07T10:29:14;68.07;;;29.08;;
27957;SDS011;15295;42.658;23.374;2022-12-07T10:31:47;74.57;;;35.33;;
27957;SDS011;15295;42.658;23.374;2022-12-07T10:36:49;51.10;;;27.50;;
27957;SDS011;15295;42.658;23.374;2022-12-07T10:39:20;51.25;;;25.88;;
27957;SDS011;15295;42.658;23.374;2022-12-07T10:42:01;48.92;;;26.70;;
27957;SDS011;15295;42.658;23.374;2022-12-07T10:44:28;52.35;;;24.92;;
27957;SDS011;15295;42.658;23.374;2022-12-07T10:52:45;43.95;;;21.52;;
27957;SDS011;15295;42.658;23.374;2022-12-07T10:55:26;45.72;;;22.85;;
27957;SDS011;15295;42.658;23.374;2022-12-07T10:59:16;43.33;;;23.05;;
27957;SDS011;15295;42.658;23.374;2022-12-07T11:12:08;41.30;;;22.35;;
27957;SDS011;15295;42.658;23.374;2022-12-07T11:30:45;51.50;;;23.85;;
27957;SDS011;15295;42.658;23.374;2022-12-07T11:33:22;49.00;;;23.95;;
27957;SDS011;15295;42.658;23.374;2022-12-07T11:39:00;47.63;;;23.10;;
27957;SDS011;15295;42.658;23.374;2022-12-07T11:41:48;49.65;;;23.52;;
27957;SDS011;15295;42.658;23.374;2022-12-07T11:44:26;48.25;;;23.00;;
27957;SDS011;15295;42.658;23.374;2022-12-07T11:47:13;49.13;;;24.08;;
27957;SDS011;15295;42.658;23.374;2022-12-07T11:49:56;47.72;;;23.35;;
27957;SDS011;15295;42.658;23.374;2022-12-07T11:52:43;45.75;;;22.92;;
27957;SDS011;15295;42.658;23.374;2022-12-07T11:58:04;48.50;;;23.55;;
27957;SDS011;15295;42.658;23.374;2022-12-07T12:00:58;46.53;;;22.95;;
27957;SDS011;15295;42.658;23.374;2022-12-07T12:03:52;51.42;;;21.45;;
27957;SDS011;15295;42.658;23.374;2022-12-07T12:06:23;45.30;;;21.30;;
27957;SDS011;15295;42.658;23.374;2022-12-07T12:14:46;45.05;;;20.60;;
27957;SDS011;15295;42.658;23.374;2022-12-07T12:20:29;42.20;;;20.70;;
27957;SDS011;15295;42.658;23.374;2022-12-07T12:23:34;47.20;;;21.20;;
27957;SDS011;15295;42.658;23.374;2022-12-07T12:28:42;43.35;;;20.92;;
27957;SDS011;15295;42.658;23.374;2022-12-07T12:31:36;53.38;;;21.55;;
27957;SDS011;15295;42.658;23.374;2022-12-07T12:34:02;44.63;;;19.95;;
27957;SDS011;15295;42.658;23.374;2022-12-07T12:46:46;47.28;;;21.42;;
27957;SDS011;15295;42.658;23.374;2022-12-07T12:51:58;46.42;;;20.65;;
27957;SDS011;15295;42.658;23.374;2022-12-07T12:54:29;42.65;;;20.10;;
27957;SDS011;15295;42.658;23.374;2022-12-07T13:10:47;40.08;;;18.45;;
27957;SDS011;15295;42.658;23.374;2022-12-07T13:15:50;32.15;;;17.50;;
27957;SDS011;15295;42.658;23.374;2022-12-07T13:18:24;29.02;;;18.08;;
27957;SDS011;15295;42.658;23.374;2022-12-07T13:23:57;30.20;;;16.77;;
27957;SDS011;15295;42.658;23.374;2022-12-07T13:26:38;31.42;;;17.30;;
27957;SDS011;15295;42.658;23.374;2022-12-07T13:29:14;34.50;;;17.02;;
27957;SDS011;15295;42.658;23.374;2022-12-07T13:31:45;32.33;;;17.25;;
27957;SDS011;15295;42.658;23.374;2022-12-07T13:39:59;38.40;;;18.58;;
27957;SDS011;15295;42.658;23.374;2022-12-07T13:42:34;40.13;;;17.15;;
27957;SDS011;15295;42.658;23.374;2022-12-07T13:45:25;33.55;;;16.80;;
27957;SDS011;15295;42.658;23.374;2022-12-07T13:50:52;34.08;;;15.57;;
27957;SDS011;15295;42.658;23.374;2022-12-07T13:53:29;28.45;;;14.93;;
27957;SDS011;15295;42.658;23.374;2022-12-07T13:56:40;31.17;;;15.45;;
27957;SDS011;15295;42.658;23.374;2022-12-07T14:01:51;35.40;;;16.10;;
27957;SDS011;15295;42.658;23.374;2022-12-07T14:06:49;32.17;;;16.70;;
27957;SDS011;15295;42.658;23.374;2022-12-07T14:09:23;37.90;;;16.83;;
27957;SDS011;15295;42.658;23.374;2022-12-07T14:11:51;35.25;;;17.92;;
27957;SDS011;15295;42.658;23.374;2022-12-07T14:14:21;31.45;;;17.02;;
27957;SDS011;15295;42.658;23.374;2022-12-07T14:17:10;39.00;;;17.02;;
27957;SDS011;15295;42.658;23.374;2022-12-07T14:24:50;41.72;;;18.20;;
27957;SDS011;15295;42.658;23.374;2022-12-07T14:27:22;38.17;;;18.73;;
27957;SDS011;15295;42.658;23.374;2022-12-07T14:32:24;45.35;;;19.23;;
27957;SDS011;15295;42.658;23.374;2022-12-07T14:35:02;42.78;;;19.25;;
27957;SDS011;15295;42.658;23.374;2022-12-07T14:37:36;36.20;;;17.70;;
27957;SDS011;15295;42.658;23.374;2022-12-07T14:40:05;37.85;;;17.70;;
27957;SDS011;15295;42.658;23.374;2022-12-07T14:42:39;38.20;;;17.77;;
27957;SDS011;15295;42.658;23.374;2022-12-07T14:45:06;36.55;;;18.63;;
27957;SDS011;15295;42.658;23.374;2022-12-07T14:47:45;34.67;;;17.42;;
27957;SDS011;15295;42.658;23.374;2022-12-07T14:50:11;35.92;;;18.20;;
27957;SDS011;15295;42.658;23.374;2022-12-07T14:52:42;41.00;;;18.98;;
27957;SDS011;15295;42.658;23.374;2022-12-07T14:55:43;40.88;;;19.25;;
27957;SDS011;15295;42.658;23.374;2022-12-07T14:58:02;48.97;;;20.17;;
27957;SDS011;15295;42.658;23.374;2022-12-07T15:00:30;47.03;;;20.45;;
27957;SDS011;15295;42.658;23.374;2022-12-07T15:02:56;44.30;;;19.13;;
27957;SDS011;15295;42.658;23.374;2022-12-07T15:05:21;48.58;;;20.08;;
27957;SDS011;15295;42.658;23.374;2022-12-07T15:07:47;38.08;;;18.38;;
27957;SDS011;15295;42.658;23.374;2022-12-07T15:10:17;43.67;;;19.13;;
27957;SDS011;15295;42.658;23.374;2022-12-07T15:12:54;37.65;;;18.00;;
27957;SDS011;15295;42.658;23.374;2022-12-07T15:15:40;50.13;;;19.88;;
27957;SDS011;15295;42.658;23.374;2022-12-07T15:18:06;51.67;;;20.77;;
27957;SDS011;15295;42.658;23.374;2022-12-07T15:20:31;53.40;;;22.30;;
27957;SDS011;15295;42.658;23.374;2022-12-07T15:22:57;61.05;;;31.20;;
27957;SDS011;15295;42.658;23.374;2022-12-07T15:25:22;64.53;;;22.80;;
27957;SDS011;15295;42.658;23.374;2022-12-07T15:27:48;55.47;;;22.25;;
27957;SDS011;15295;42.658;23.374;2022-12-07T15:30:13;49.70;;;22.05;;
27957;SDS011;15295;42.658;23.374;2022-12-07T15:32:39;51.08;;;21.95;;
27957;SDS011;15295;42.658;23.374;2022-12-07T15:35:15;55.03;;;21.50;;
27957;SDS011;15295;42.658;23.374;2022-12-07T15:37:41;58.05;;;21.75;;
27957;SDS011;15295;42.658;23.374;2022-12-07T15:40:06;51.85;;;22.38;;
27957;SDS011;15295;42.658;23.374;2022-12-07T15:42:33;60.25;;;24.77;;
27957;SDS011;15295;42.658;23.374;2022-12-07T15:45:00;57.30;;;25.35;;
27957;SDS011;15295;42.658;23.374;2022-12-07T15:47:34;57.90;;;23.92;;
27957;SDS011;15295;42.658;23.374;2022-12-07T15:50:07;63.25;;;26.35;;
27957;SDS011;15295;42.658;23.374;2022-12-07T15:52:34;69.10;;;26.88;;
27957;SDS011;15295;42.658;23.374;2022-12-07T15:55:00;67.50;;;26.83;;
27957;SDS011;15295;42.658;23.374;2022-12-07T15:57:28;65.05;;;26.58;;
27957;SDS011;15295;42.658;23.374;2022-12-07T15:59:55;67.85;;;27.63;;
27957;SDS011;15295;42.658;23.374;2022-12-07T16:02:20;84.60;;;29.77;;
27957;SDS011;15295;42.658;23.374;2022-12-07T16:04:48;61.38;;;26.88;;
27957;SDS011;15295;42.658;23.374;2022-12-07T16:07:14;68.68;;;26.13;;
27957;SDS011;15295;42.658;23.374;2022-12-07T16:09:41;59.83;;;27.70;;
27957;SDS011;15295;42.658;23.374;2022-12-07T16:12:07;73.03;;;28.30;;
27957;SDS011;15295;42.658;23.374;2022-12-07T16:14:40;70.15;;;26.75;;
27957;SDS011;15295;42.658;23.374;2022-12-07T16:17:06;61.08;;;26.67;;
27957;SDS011;15295;42.658;23.374;2022-12-07T16:19:33;93.32;;;34.53;;
27957;SDS011;15295;42.658;23.374;2022-12-07T16:21:59;83.50;;;31.38;;
27957;SDS011;15295;42.658;23.374;2022-12-07T16:24:25;69.38;;;27.52;;
27957;SDS011;15295;42.658;23.374;2022-12-07T16:26:51;72.25;;;28.98;;
27957;SDS011;15295;42.658;23.374;2022-12-07T16:29:17;69.72;;;30.63;;
27957;SDS011;15295;42.658;23.374;2022-12-07T16:31:44;76.35;;;32.72;;
27957;SDS011;15295;42.658;23.374;2022-12-07T16:34:09;79.30;;;29.52;;
27957;SDS011;15295;42.658;23.374;2022-12-07T16:36:37;71.05;;;30.65;;
27957;SDS011;15295;42.658;23.374;2022-12-07T16:39:04;76.50;;;31.17;;
27957;SDS011;15295;42.658;23.374;2022-12-07T16:41:30;76.10;;;29.23;;
27957;SDS011;15295;42.658;23.374;2022-12-07T16:43:57;69.45;;;29.23;;
27957;SDS011;15295;42.658;23.374;2022-12-07T16:46:35;63.92;;;27.95;;
27957;SDS011;15295;42.658;23.374;2022-12-07T16:49:02;73.40;;;32.35;;
27957;SDS011;15295;42.658;23.374;2022-12-07T16:51:28;74.88;;;30.77;;
27957;SDS011;15295;42.658;23.374;2022-12-07T16:53:56;72.15;;;28.88;;
27957;SDS011;15295;42.658;23.374;2022-12-07T16:56:22;72.78;;;30.63;;
27957;SDS011;15295;42.658;23.374;2022-12-07T16:58:47;67.60;;;29.30;;
27957;SDS011;15295;42.658;23.374;2022-12-07T17:01:18;71.97;;;30.60;;
27957;SDS011;15295;42.658;23.374;2022-12-07T17:03:49;68.10;;;31.25;;
27957;SDS011;15295;42.658;23.374;2022-12-07T17:06:24;76.05;;;33.00;;
27957;SDS011;15295;42.658;23.374;2022-12-07T17:08:51;119.30;;;56.42;;
27957;SDS011;15295;42.658;23.374;2022-12-07T17:11:21;73.63;;;34.72;;
27957;SDS011;15295;42.658;23.374;2022-12-07T17:13:48;73.47;;;32.83;;
27957;SDS011;15295;42.658;23.374;2022-12-07T17:16:34;84.20;;;35.60;;
27957;SDS011;15295;42.658;23.374;2022-12-07T17:19:03;68.93;;;33.22;;
27957;SDS011;15295;42.658;23.374;2022-12-07T17:21:35;87.65;;;36.78;;
27957;SDS011;15295;42.658;23.374;2022-12-07T17:24:02;82.70;;;34.80;;
27957;SDS011;15295;42.658;23.374;2022-12-07T17:26:29;93.95;;;35.42;;
27957;SDS011;15295;42.658;23.374;2022-12-07T17:29:06;77.28;;;31.45;;
27957;SDS011;15295;42.658;23.374;2022-12-07T17:31:33;119.50;;;42.25;;
27957;SDS011;15295;42.658;23.374;2022-12-07T17:34:10;69.75;;;31.42;;